Time;durP1;ratioP1;P1;durP2;ratioP2;P2;SDS_P1;SDS_P2;PMS_P1;PMS_P2;Temp;Humidity;BMP_temperature;BMP_pressure;BME280_temperature;BME280_humidity;BME280_pressure;Samples;Min_cycle;Max_cycle;Signal;HPM_P1;HPM_P2
2023/07/27 00:00:30;;;;;;;6.35;4.50;;;15.40;99.90;;;;;;5073083;28;20215;-71
2023/07/27 00:03:21;;;;;;;7.03;4.47;;;15.40;99.90;;;;;;5074689;28;20770;-70
2023/07/27 00:06:10;;;;;;;6.18;4.88;;;15.50;99.90;;;;;;5074210;28;20227;-68
2023/07/27 00:09:00;;;;;;;5.60;4.00;;;15.50;99.90;;;;;;5076673;28;20659;-71
2023/07/27 00:11:50;;;;;;;7.05;3.65;;;15.40;99.90;;;;;;5061031;28;20694;-70
2023/07/27 00:14:39;;;;;;;7.88;4.10;;;15.10;99.90;;;;;;5076635;28;20706;-68
2023/07/27 00:17:27;;;;;;;5.95;4.55;;;15.20;99.90;;;;;;5080749;28;20250;-69
2023/07/27 00:20:17;;;;;;;5.80;4.70;;;15.30;99.90;;;;;;5078003;28;20272;-70
2023/07/27 00:23:06;;;;;;;6.20;4.65;;;15.30;99.90;;;;;;5066551;28;20293;-69
2023/07/27 00:25:56;;;;;;;6.32;5.05;;;15.30;99.90;;;;;;5076644;28;20224;-70
2023/07/27 00:28:45;;;;;;;6.97;4.78;;;15.40;99.90;;;;;;5080546;28;20307;-69
2023/07/27 00:31:34;;;;;;;7.85;5.00;;;15.40;99.90;;;;;;5070877;28;20280;-71
2023/07/27 00:34:23;;;;;;;8.15;4.53;;;15.50;99.90;;;;;;5062471;28;20228;-70
2023/07/27 00:37:13;;;;;;;6.15;4.72;;;15.50;99.90;;;;;;5068858;28;20253;-69
2023/07/27 00:40:02;;;;;;;7.75;4.88;;;15.40;99.90;;;;;;5063589;28;20223;-71
2023/07/27 00:42:51;;;;;;;6.28;4.65;;;15.40;99.90;;;;;;5070044;28;20730;-70
2023/07/27 00:45:41;;;;;;;8.52;5.03;;;15.30;99.90;;;;;;5075391;28;20288;-72
2023/07/27 00:48:30;;;;;;;7.22;5.35;;;15.40;99.90;;;;;;5071529;28;20219;-71
2023/07/27 00:51:19;;;;;;;5.82;5.30;;;15.30;99.90;;;;;;5078905;28;20307;-71
2023/07/27 00:54:11;;;;;;;8.48;6.07;;;15.30;99.90;;;;;;5071882;28;20233;-70
2023/07/27 00:57:00;;;;;;;11.60;5.90;;;15.40;99.90;;;;;;5068661;28;20289;-71
2023/07/27 00:59:49;;;;;;;9.07;5.97;;;15.40;99.90;;;;;;5076111;28;20224;-72
2023/07/27 01:02:39;;;;;;;8.68;5.75;;;15.40;99.90;;;;;;5062475;28;20269;-72
2023/07/27 01:05:28;;;;;;;6.97;5.95;;;15.40;99.90;;;;;;5063939;28;20224;-70
2023/07/27 01:08:17;;;;;;;10.23;5.78;;;15.40;99.90;;;;;;5056848;28;20239;-71
2023/07/27 01:11:12;;;;;;;7.60;5.80;;;15.40;99.90;;;;;;5069264;28;20223;-72
2023/07/27 01:14:09;;;;;;;8.85;5.63;;;15.30;99.90;;;;;;5080107;28;20314;-71
2023/07/27 01:17:04;;;;;;;11.68;5.60;;;15.20;99.90;;;;;;5084398;28;20225;-74
2023/07/27 01:20:04;;;;;;;6.85;5.53;;;15.30;99.90;;;;;;5076170;28;20211;-73
2023/07/27 01:23:32;;;;;;;8.95;5.75;;;15.30;99.90;;;;;;5078153;28;20216;-73
2023/07/27 01:26:55;;;;;;;9.45;5.93;;;15.20;99.90;;;;;;5046771;28;20310;-72
2023/07/27 01:30:22;;;;;;;12.50;6.35;;;15.20;99.90;;;;;;5064966;28;20219;-70
2023/07/27 01:33:14;;;;;;;9.27;5.95;;;15.20;99.90;;;;;;5065312;28;20318;-71
2023/07/27 01:36:11;;;;;;;8.77;5.57;;;15.10;99.90;;;;;;5081620;28;20258;-73
2023/07/27 01:39:04;;;;;;;7.00;5.70;;;15.20;99.90;;;;;;5075753;28;20224;-73
2023/07/27 01:41:55;;;;;;;7.43;5.63;;;15.20;99.90;;;;;;5078535;28;20527;-72
2023/07/27 01:44:45;;;;;;;9.57;5.30;;;15.20;99.90;;;;;;5065010;28;20216;-72
2023/07/27 01:47:34;;;;;;;9.02;5.93;;;15.10;99.90;;;;;;5079042;28;20228;-72
2023/07/27 01:50:26;;;;;;;7.40;5.30;;;15.10;99.90;;;;;;5062486;28;20789;-70
2023/07/27 01:53:17;;;;;;;9.55;5.38;;;15.20;99.90;;;;;;5066308;28;20242;-71
2023/07/27 01:56:07;;;;;;;7.03;5.20;;;15.20;99.90;;;;;;5078953;28;20666;-71
2023/07/27 01:58:57;;;;;;;6.25;5.07;;;15.20;99.90;;;;;;5080107;28;20223;-72
2023/07/27 02:01:46;;;;;;;10.25;5.25;;;15.20;99.90;;;;;;5051527;28;20219;-70
2023/07/27 02:04:35;;;;;;;7.18;4.90;;;15.20;99.90;;;;;;5069021;28;20228;-71
2023/07/27 02:07:26;;;;;;;7.90;4.78;;;15.10;99.90;;;;;;5073344;28;20227;-70
2023/07/27 02:10:17;;;;;;;6.35;4.72;;;15.20;99.90;;;;;;5082296;28;20272;-72
2023/07/27 02:13:11;;;;;;;7.90;4.07;;;15.20;99.90;;;;;;5077107;28;20223;-71
2023/07/27 02:16:05;;;;;;;7.53;4.55;;;15.10;99.90;;;;;;5073036;28;20229;-73
2023/07/27 02:18:59;;;;;;;5.75;4.30;;;15.10;99.90;;;;;;5071870;28;20245;-71
2023/07/27 02:21:48;;;;;;;6.80;4.43;;;15.20;99.90;;;;;;5075211;28;20266;-71
2023/07/27 02:24:39;;;;;;;6.82;4.53;;;15.10;99.90;;;;;;5073877;28;20224;-72
2023/07/27 02:27:28;;;;;;;5.63;4.43;;;15.10;99.90;;;;;;5077404;28;20242;-72
2023/07/27 02:30:17;;;;;;;7.85;4.28;;;15.00;99.90;;;;;;5057273;28;20255;-70
2023/07/27 02:33:07;;;;;;;6.28;4.30;;;15.00;99.90;;;;;;5075875;28;20686;-69
2023/07/27 02:35:56;;;;;;;7.85;4.85;;;14.80;99.90;;;;;;5059387;28;20254;-70
2023/07/27 02:38:45;;;;;;;6.25;4.78;;;14.70;99.90;;;;;;5064140;28;20207;-70
2023/07/27 02:41:36;;;;;;;6.00;4.65;;;14.90;99.90;;;;;;5071869;28;20212;-70
2023/07/27 02:44:29;;;;;;;5.93;4.30;;;14.90;99.90;;;;;;5046223;28;20361;-71
2023/07/27 02:47:18;;;;;;;7.88;4.95;;;14.80;99.90;;;;;;5075682;28;20224;-71
2023/07/27 02:50:09;;;;;;;6.57;4.75;;;14.80;99.90;;;;;;5071188;28;20228;-72
2023/07/27 02:53:13;;;;;;;6.45;4.88;;;14.80;99.90;;;;;;5074180;28;20231;-72
2023/07/27 02:56:06;;;;;;;8.40;4.82;;;14.90;99.90;;;;;;5081955;28;20240;-71
2023/07/27 02:59:06;;;;;;;5.85;4.78;;;14.90;99.90;;;;;;5034647;28;20241;-71
2023/07/27 03:02:01;;;;;;;7.38;5.20;;;14.90;99.90;;;;;;5064489;28;20712;-72
2023/07/27 03:04:57;;;;;;;7.95;5.05;;;15.00;99.90;;;;;;5048201;28;20221;-72
2023/07/27 03:07:46;;;;;;;6.45;4.50;;;15.00;99.90;;;;;;5043874;28;20316;-69
2023/07/27 03:10:36;;;;;;;5.32;4.60;;;14.90;99.90;;;;;;5049150;28;20232;-70
2023/07/27 03:13:24;;;;;;;7.90;4.40;;;14.90;99.90;;;;;;5052585;28;20216;-70
2023/07/27 03:16:15;;;;;;;7.13;4.38;;;14.90;99.90;;;;;;5049816;28;20587;-71
2023/07/27 03:19:07;;;;;;;8.88;4.80;;;14.90;99.90;;;;;;5048856;28;20763;-70
2023/07/27 03:21:56;;;;;;;5.95;4.63;;;15.00;99.90;;;;;;5054301;28;20616;-70
2023/07/27 03:24:44;;;;;;;6.57;4.57;;;15.00;99.90;;;;;;5048603;28;20580;-70
2023/07/27 03:27:34;;;;;;;6.43;4.50;;;15.10;99.90;;;;;;5055876;28;20231;-70
2023/07/27 03:30:22;;;;;;;6.10;3.78;;;15.00;99.90;;;;;;5031278;28;20225;-70
2023/07/27 03:33:13;;;;;;;6.68;4.30;;;15.00;99.90;;;;;;5049582;28;20482;-71
2023/07/27 03:36:02;;;;;;;6.63;3.78;;;15.10;99.90;;;;;;5054700;28;20220;-70
2023/07/27 03:38:51;;;;;;;5.05;3.60;;;15.10;99.90;;;;;;5037456;28;20612;-70
2023/07/27 03:41:40;;;;;;;6.45;4.47;;;15.10;99.90;;;;;;5036957;28;20221;-72
2023/07/27 03:44:29;;;;;;;6.05;4.10;;;15.20;99.90;;;;;;5046170;28;20282;-70
2023/07/27 03:47:18;;;;;;;6.32;4.20;;;15.10;99.90;;;;;;5044069;28;20229;-70
2023/07/27 03:50:09;;;;;;;5.65;4.13;;;15.10;99.90;;;;;;5057462;28;20224;-71
2023/07/27 03:52:58;;;;;;;8.65;4.05;;;15.20;99.90;;;;;;5049456;28;20228;-70
2023/07/27 03:55:47;;;;;;;5.78;4.32;;;15.20;99.90;;;;;;5034486;28;20247;-72
2023/07/27 03:58:36;;;;;;;5.97;4.15;;;15.30;99.90;;;;;;5066904;28;20224;-71
2023/07/27 04:01:26;;;;;;;6.93;4.13;;;15.40;99.90;;;;;;5060855;28;20252;-71
2023/07/27 04:04:15;;;;;;;8.82;4.75;;;15.30;99.90;;;;;;5062006;28;20405;-71
2023/07/27 04:07:06;;;;;;;5.65;4.45;;;15.40;99.90;;;;;;5072429;28;20228;-70
2023/07/27 04:09:55;;;;;;;5.78;4.60;;;15.40;99.90;;;;;;5072530;28;20225;-71
2023/07/27 04:12:44;;;;;;;5.82;4.70;;;15.40;99.90;;;;;;5059909;28;20840;-72
2023/07/27 04:15:33;;;;;;;7.70;4.57;;;15.40;99.90;;;;;;5069548;28;20319;-71
2023/07/27 04:18:22;;;;;;;8.55;5.00;;;15.40;99.90;;;;;;5076431;28;20317;-72
2023/07/27 04:21:11;;;;;;;7.05;4.63;;;15.50;99.90;;;;;;5063367;28;20689;-74
2023/07/27 04:24:01;;;;;;;5.85;4.18;;;15.50;99.90;;;;;;5076536;28;20227;-74
2023/07/27 04:26:50;;;;;;;6.03;4.60;;;15.50;99.90;;;;;;5070603;28;20216;-74
2023/07/27 04:29:39;;;;;;;5.88;4.47;;;15.60;99.90;;;;;;5077379;28;20214;-71
2023/07/27 04:32:28;;;;;;;6.97;4.25;;;15.60;99.90;;;;;;5052826;28;20211;-72
2023/07/27 04:35:19;;;;;;;5.13;3.78;;;15.60;99.90;;;;;;5064721;28;20531;-71
2023/07/27 04:38:07;;;;;;;7.65;4.40;;;15.70;99.90;;;;;;5074368;28;20223;-72
2023/07/27 04:40:58;;;;;;;6.30;3.72;;;15.90;99.90;;;;;;5078006;28;20318;-72
2023/07/27 04:43:47;;;;;;;6.53;3.90;;;16.00;99.90;;;;;;5058336;28;20234;-70
2023/07/27 04:46:36;;;;;;;5.95;3.85;;;16.20;99.90;;;;;;5076732;28;20582;-71
2023/07/27 04:49:26;;;;;;;4.70;3.65;;;16.30;99.90;;;;;;5064396;28;20252;-72
2023/07/27 04:52:15;;;;;;;7.18;3.97;;;16.50;99.90;;;;;;5069118;28;20582;-71
2023/07/27 04:55:04;;;;;;;5.60;3.72;;;16.60;99.90;;;;;;5076263;28;20833;-73
2023/07/27 04:57:54;;;;;;;4.45;3.40;;;16.70;99.90;;;;;;5065628;28;20235;-71
2023/07/27 05:00:43;;;;;;;4.50;3.30;;;16.80;99.90;;;;;;5078687;28;20561;-71
2023/07/27 05:03:32;;;;;;;5.68;3.75;;;16.90;99.90;;;;;;5069402;28;20224;-70
2023/07/27 05:06:21;;;;;;;6.40;3.92;;;17.00;99.90;;;;;;5076856;28;20731;-71
2023/07/27 05:09:10;;;;;;;7.50;3.95;;;17.10;99.90;;;;;;5063356;28;20223;-70
2023/07/27 05:12:00;;;;;;;4.40;4.00;;;17.10;99.90;;;;;;5072790;28;20285;-71
2023/07/27 05:14:52;;;;;;;5.90;4.45;;;17.00;99.90;;;;;;5070597;28;20211;-72
2023/07/27 05:17:40;;;;;;;9.80;4.80;;;17.10;99.90;;;;;;5058754;28;20870;-69
2023/07/27 05:20:30;;;;;;;4.85;4.35;;;17.10;99.90;;;;;;5071286;28;20242;-68
2023/07/27 05:23:18;;;;;;;5.20;4.72;;;17.20;99.90;;;;;;5081393;28;20771;-69
2023/07/27 05:26:08;;;;;;;6.88;5.45;;;17.50;99.90;;;;;;5073474;28;20239;-69
2023/07/27 05:28:57;;;;;;;9.50;5.65;;;17.60;99.90;;;;;;5071969;28;20283;-68
2023/07/27 05:31:49;;;;;;;7.45;6.63;;;17.40;99.90;;;;;;5067430;28;20413;-69
2023/07/27 05:34:39;;;;;;;10.82;8.43;;;17.50;99.90;;;;;;5075608;28;20258;-71
2023/07/27 05:37:28;;;;;;;11.02;8.48;;;17.60;99.90;;;;;;5064356;28;20267;-72
2023/07/27 05:40:17;;;;;;;11.27;9.15;;;17.70;99.90;;;;;;5063203;28;20225;-70
2023/07/27 05:43:06;;;;;;;9.95;8.90;;;17.70;99.90;;;;;;5073829;28;20228;-72
2023/07/27 05:45:54;;;;;;;12.45;10.68;;;17.80;99.90;;;;;;5077667;28;20238;-72
2023/07/27 05:48:45;;;;;;;12.52;11.23;;;17.70;99.90;;;;;;5072260;28;20243;-66
2023/07/27 05:51:35;;;;;;;12.68;11.18;;;17.40;99.90;;;;;;5069871;28;20582;-70
2023/07/27 05:54:24;;;;;;;13.07;11.50;;;17.80;99.90;;;;;;5073687;28;20689;-73
2023/07/27 05:57:13;;;;;;;15.43;11.30;;;17.70;99.90;;;;;;5071022;28;20958;-71
2023/07/27 06:00:01;;;;;;;13.65;11.35;;;17.70;99.90;;;;;;5075422;28;20248;-71
2023/07/27 06:02:54;;;;;;;11.73;10.52;;;17.70;99.90;;;;;;5071691;28;20216;-70
2023/07/27 06:05:47;;;;;;;11.20;9.05;;;18.30;99.90;;;;;;5071782;28;20769;-73
2023/07/27 06:08:36;;;;;;;11.63;9.32;;;18.80;99.90;;;;;;5074692;28;20219;-73
2023/07/27 06:11:28;;;;;;;9.45;7.85;;;20.90;99.90;;;;;;5070523;28;20227;-73
2023/07/27 06:14:17;;;;;;;10.70;8.38;;;19.50;99.90;;;;;;5071099;28;20301;-71
2023/07/27 06:17:06;;;;;;;10.15;7.00;;;19.20;99.90;;;;;;5077776;28;20597;-72
2023/07/27 06:19:55;;;;;;;9.48;6.65;;;18.90;99.90;;;;;;5072576;28;20215;-74
2023/07/27 06:22:45;;;;;;;11.60;5.93;;;18.80;99.90;;;;;;5069712;28;20227;-70
2023/07/27 06:25:34;;;;;;;8.52;5.70;;;18.50;99.90;;;;;;5055688;28;20242;-70
2023/07/27 06:28:23;;;;;;;10.63;5.15;;;18.50;99.90;;;;;;5075668;28;20227;-71
2023/07/27 06:31:12;;;;;;;9.05;4.53;;;18.30;99.90;;;;;;5081566;28;20226;-71
2023/07/27 06:34:00;;;;;;;8.45;4.68;;;18.20;99.90;;;;;;5064948;28;20219;-70
2023/07/27 06:36:50;;;;;;;8.25;4.18;;;18.40;99.90;;;;;;5073569;28;20227;-71
2023/07/27 06:39:41;;;;;;;6.13;4.47;;;18.40;99.90;;;;;;5068235;28;20239;-71
2023/07/27 06:42:30;;;;;;;6.88;4.25;;;18.50;99.90;;;;;;5054719;28;20588;-70
2023/07/27 06:45:23;;;;;;;5.03;4.13;;;18.50;99.90;;;;;;5054840;28;20398;-71
2023/07/27 06:48:12;;;;;;;6.35;4.43;;;18.50;99.90;;;;;;5063608;28;20219;-71
2023/07/27 06:51:01;;;;;;;8.18;4.10;;;18.60;99.90;;;;;;5074149;28;20226;-71
2023/07/27 06:53:50;;;;;;;6.95;4.30;;;18.60;99.90;;;;;;5073942;28;20230;-71
2023/07/27 06:56:40;;;;;;;7.15;4.18;;;18.80;99.90;;;;;;5076521;28;20242;-71
2023/07/27 06:59:29;;;;;;;7.05;4.05;;;18.90;99.90;;;;;;5076908;28;20710;-72
2023/07/27 07:02:18;;;;;;;9.00;4.80;;;18.90;99.90;;;;;;5071896;28;20255;-71
2023/07/27 07:05:07;;;;;;;6.53;4.28;;;19.10;99.90;;;;;;5078966;28;20233;-71
2023/07/27 07:08:00;;;;;;;6.22;4.10;;;19.50;99.90;;;;;;5063273;28;20569;-71
2023/07/27 07:10:49;;;;;;;5.72;3.78;;;19.70;99.90;;;;;;5063732;28;20269;-71
2023/07/27 07:13:42;;;;;;;5.53;4.05;;;19.70;99.90;;;;;;5052675;28;20310;-71
2023/07/27 07:16:31;;;;;;;7.72;4.03;;;19.70;99.90;;;;;;5081318;28;20227;-72
2023/07/27 07:19:20;;;;;;;7.43;4.50;;;19.60;99.90;;;;;;5078000;28;20220;-71
2023/07/27 07:22:12;;;;;;;8.85;4.30;;;19.80;99.90;;;;;;5068754;28;20579;-71
2023/07/27 07:25:01;;;;;;;7.15;3.90;;;20.00;99.90;;;;;;5069186;28;20226;-72
2023/07/27 07:27:50;;;;;;;10.00;4.15;;;20.30;99.90;;;;;;5062502;28;20716;-71
2023/07/27 07:30:41;;;;;;;7.07;4.43;;;20.40;99.90;;;;;;5057366;28;20675;-72
2023/07/27 07:33:30;;;;;;;5.80;4.25;;;20.80;99.90;;;;;;5073126;28;20706;-71
2023/07/27 07:36:20;;;;;;;8.07;4.80;;;21.00;99.90;;;;;;5060517;28;20246;-71
2023/07/27 07:39:09;;;;;;;6.90;4.50;;;21.20;99.90;;;;;;5077846;28;20215;-70
2023/07/27 07:41:59;;;;;;;6.20;4.00;;;21.60;99.90;;;;;;5080426;28;20950;-73
2023/07/27 07:44:47;;;;;;;8.15;4.43;;;21.70;99.90;;;;;;5062915;28;20217;-72
2023/07/27 07:47:38;;;;;;;5.88;4.10;;;21.90;99.90;;;;;;5067321;28;20788;-71
2023/07/27 07:50:29;;;;;;;6.03;4.30;;;22.20;99.90;;;;;;5081953;28;20245;-71
2023/07/27 07:53:17;;;;;;;9.32;4.45;;;22.60;99.90;;;;;;5064661;28;20230;-71
2023/07/27 07:56:21;;;;;;;5.32;4.10;;;23.10;99.90;;;;;;5062055;28;20602;-71
2023/07/27 07:59:10;;;;;;;6.68;4.18;;;23.30;99.90;;;;;;5069075;28;20374;-72
2023/07/27 08:01:59;;;;;;;6.75;3.58;;;23.50;99.90;;;;;;5079789;28;20224;-71
2023/07/27 08:04:50;;;;;;;8.38;3.72;;;24.00;99.90;;;;;;5074899;28;20258;-71
2023/07/27 08:07:41;;;;;;;7.60;3.80;;;23.20;99.90;;;;;;5076444;28;20223;-71
2023/07/27 08:10:30;;;;;;;5.63;4.10;;;23.30;99.90;;;;;;5069344;28;20461;-71
2023/07/27 08:13:19;;;;;;;5.32;3.88;;;23.90;99.90;;;;;;5075402;28;21065;-71
2023/07/27 08:16:08;;;;;;;9.77;4.40;;;24.30;99.90;;;;;;5072242;28;20238;-72
2023/07/27 08:18:57;;;;;;;5.22;3.90;;;23.90;99.90;;;;;;5072696;28;20236;-73
2023/07/27 08:21:47;;;;;;;7.57;3.67;;;24.00;99.90;;;;;;5065780;28;20238;-70
2023/07/27 08:24:36;;;;;;;6.80;3.55;;;24.60;99.90;;;;;;5068689;28;20708;-72
2023/07/27 08:27:26;;;;;;;4.57;3.70;;;24.60;99.90;;;;;;5078260;28;20216;-71
2023/07/27 08:30:15;;;;;;;6.47;3.63;;;24.40;99.90;;;;;;5064717;28;20389;-71
2023/07/27 08:33:04;;;;;;;6.07;3.63;;;24.30;99.90;;;;;;5075181;28;20227;-71
2023/07/27 08:35:53;;;;;;;5.40;3.00;;;23.70;99.90;;;;;;5061001;28;20255;-72
2023/07/27 08:38:43;;;;;;;5.68;3.53;;;24.60;99.90;;;;;;5059739;28;20719;-71
2023/07/27 08:41:32;;;;;;;4.50;3.30;;;25.20;99.90;;;;;;5073735;28;20258;-73
2023/07/27 08:44:21;;;;;;;8.07;3.70;;;24.60;99.90;;;;;;5066260;28;20708;-71
2023/07/27 08:47:11;;;;;;;5.78;3.35;;;24.60;99.90;;;;;;5075415;28;20672;-71
2023/07/27 08:50:00;;;;;;;7.43;3.53;;;24.50;99.90;;;;;;5067443;28;20276;-72
2023/07/27 08:52:49;;;;;;;26.85;15.32;;;24.40;99.90;;;;;;5060303;28;20244;-71
2023/07/27 08:55:46;;;;;;;5.25;2.92;;;23.60;99.90;;;;;;5064357;28;20706;-71
2023/07/27 08:58:34;;;;;;;7.88;2.88;;;24.20;99.90;;;;;;5057387;28;20223;-72
2023/07/27 09:01:24;;;;;;;4.40;2.60;;;25.40;99.90;;;;;;5051842;28;20236;-71
2023/07/27 09:04:13;;;;;;;3.90;2.95;;;24.50;99.90;;;;;;5040441;28;20234;-71
2023/07/27 09:07:07;;;;;;;6.47;2.50;;;25.10;99.90;;;;;;5054456;28;20239;-72
2023/07/27 09:09:56;;;;;;;6.10;2.60;;;25.60;99.90;;;;;;5037239;28;20213;-71
2023/07/27 09:12:46;;;;;;;4.15;2.40;;;26.20;99.90;;;;;;5061816;28;20301;-71
2023/07/27 09:15:36;;;;;;;9.73;2.80;;;26.40;99.90;;;;;;5037298;28;20229;-72
2023/07/27 09:18:27;;;;;;;3.63;2.13;;;25.70;99.90;;;;;;5047769;28;20219;-72
2023/07/27 09:21:17;;;;;;;4.85;2.17;;;26.40;99.90;;;;;;5057701;28;20691;-71
2023/07/27 09:24:09;;;;;;;7.13;2.25;;;26.60;99.90;;;;;;5054457;28;20220;-69
2023/07/27 09:26:58;;;;;;;4.20;2.10;;;27.20;99.90;;;;;;5054406;28;20594;-72
2023/07/27 09:29:58;;;;;;;5.45;1.85;;;27.40;99.90;;;;;;5049001;28;20695;-71
2023/07/27 09:32:48;;;;;;;5.78;2.58;;;27.90;97.70;;;;;;5052664;28;20230;-72
2023/07/27 09:35:37;;;;;;;4.13;2.13;;;28.40;99.90;;;;;;5064467;28;20224;-74
2023/07/27 09:38:27;;;;;;;4.72;2.20;;;29.00;99.80;;;;;;5047379;28;20761;-71
2023/07/27 09:41:17;;;;;;;4.03;2.33;;;29.10;99.90;;;;;;5061503;28;20219;-71
2023/07/27 09:44:06;;;;;;;6.35;2.50;;;29.40;94.70;;;;;;5056201;28;20220;-71
2023/07/27 09:46:57;;;;;;;3.83;2.05;;;30.00;96.90;;;;;;5055180;28;20285;-71
2023/07/27 09:49:46;;;;;;;3.85;2.20;;;29.30;96.70;;;;;;5057106;28;20273;-72
2023/07/27 09:52:36;;;;;;;3.67;2.60;;;29.80;97.80;;;;;;5045804;28;20220;-72
2023/07/27 09:55:30;;;;;;;3.75;2.40;;;30.50;97.90;;;;;;5033607;28;20250;-71
2023/07/27 09:58:19;;;;;;;2.67;2.00;;;31.40;94.60;;;;;;5072102;28;20701;-72
2023/07/27 10:01:09;;;;;;;4.03;2.30;;;32.10;90.60;;;;;;5070265;28;20298;-71
2023/07/27 10:03:59;;;;;;;4.13;2.58;;;32.90;85.80;;;;;;5071901;28;20234;-72
2023/07/27 10:06:49;;;;;;;3.70;2.30;;;33.90;88.00;;;;;;5074073;28;20227;-71
2023/07/27 10:09:39;;;;;;;5.57;2.40;;;34.30;82.60;;;;;;5068378;28;20758;-71
2023/07/27 10:12:28;;;;;;;3.72;2.30;;;32.40;83.30;;;;;;5054894;28;20227;-71
2023/07/27 10:15:21;;;;;;;2.88;2.10;;;32.20;73.40;;;;;;5067889;28;20690;-73
2023/07/27 10:18:14;;;;;;;3.97;2.22;;;31.70;79.00;;;;;;5064606;28;20257;-72
2023/07/27 10:21:23;;;;;;;2.13;1.80;;;33.00;77.70;;;;;;5070917;28;20314;-71
2023/07/27 10:24:21;;;;;;;2.22;1.67;;;34.50;73.10;;;;;;5065397;28;20316;-72
2023/07/27 10:27:11;;;;;;;2.17;1.65;;;35.50;67.90;;;;;;5070209;28;20222;-71
2023/07/27 10:30:11;;;;;;;3.33;1.80;;;36.10;71.50;;;;;;5069221;28;20333;-70
2023/07/27 10:33:15;;;;;;;3.63;1.83;;;36.80;68.70;;;;;;5072932;28;20308;-70
2023/07/27 10:36:05;;;;;;;3.35;2.10;;;33.90;69.10;;;;;;5063464;28;20995;-71
2023/07/27 10:38:56;;;;;;;6.70;2.30;;;30.80;76.70;;;;;;5066377;28;20231;-72
2023/07/27 10:42:09;;;;;;;2.88;2.58;;;30.40;75.10;;;;;;5072776;28;20314;-70
2023/07/27 10:44:59;;;;;;;4.55;2.42;;;28.80;82.10;;;;;;5074695;28;20770;-71
2023/07/27 10:47:50;;;;;;;4.85;2.25;;;33.70;77.50;;;;;;5063137;28;20242;-70
2023/07/27 10:50:43;;;;;;;4.50;2.20;;;36.10;71.20;;;;;;5069950;28;20853;-71
2023/07/27 10:53:36;;;;;;;3.95;2.00;;;37.70;65.70;;;;;;5070774;28;20296;-71
2023/07/27 10:56:28;;;;;;;5.25;2.17;;;38.80;60.50;;;;;;5071753;28;20215;-71
2023/07/27 10:59:18;;;;;;;3.88;1.92;;;39.60;59.80;;;;;;5082418;28;20234;-71
2023/07/27 11:02:17;;;;;;;2.78;1.90;;;39.70;55.20;;;;;;5069068;28;20435;-71
2023/07/27 11:05:08;;;;;;;2.40;1.60;;;39.80;52.70;;;;;;5075769;28;20256;-70
2023/07/27 11:08:02;;;;;;;9.00;2.30;;;39.60;54.20;;;;;;5067203;28;20231;-71
2023/07/27 11:10:51;;;;;;;4.40;1.77;;;40.70;53.40;;;;;;5059372;28;20231;-70
2023/07/27 11:13:42;;;;;;;3.45;1.85;;;39.20;55.60;;;;;;5073956;28;20223;-72
2023/07/27 11:16:31;;;;;;;2.38;1.60;;;40.80;56.60;;;;;;5080017;28;20999;-71
2023/07/27 11:19:22;;;;;;;1.73;1.30;;;41.20;52.60;;;;;;5073878;28;20219;-71
2023/07/27 11:22:11;;;;;;;1.67;1.45;;;41.10;50.00;;;;;;5059669;28;20227;-71
2023/07/27 11:25:04;;;;;;;2.50;1.63;;;40.70;47.70;;;;;;5062899;28;20227;-72
2023/07/27 11:27:54;;;;;;;4.72;2.10;;;41.00;49.30;;;;;;5074262;28;20223;-71
2023/07/27 11:30:44;;;;;;;2.70;1.40;;;41.30;47.70;;;;;;5054241;28;20669;-73
2023/07/27 11:33:34;;;;;;;2.00;1.30;;;42.20;48.80;;;;;;5071734;28;20302;-71
2023/07/27 11:36:23;;;;;;;4.57;1.77;;;41.10;51.40;;;;;;5056824;28;20759;-72
2023/07/27 11:39:11;;;;;;;2.97;1.40;;;42.20;48.60;;;;;;5072297;28;20301;-72
2023/07/27 11:42:09;;;;;;;2.28;1.45;;;43.50;47.60;;;;;;5061575;28;21316;-72
2023/07/27 11:44:59;;;;;;;1.75;1.42;;;44.30;46.50;;;;;;5064948;28;20307;-71
2023/07/27 11:47:53;;;;;;;1.73;1.27;;;44.80;45.20;;;;;;5058986;28;20250;-71
2023/07/27 11:50:44;;;;;;;2.83;1.65;;;44.20;44.60;;;;;;5058755;28;20617;-71
2023/07/27 11:53:34;;;;;;;1.88;1.20;;;43.40;47.40;;;;;;5074809;28;20246;-72
2023/07/27 11:56:27;;;;;;;4.88;1.50;;;45.80;44.30;;;;;;5071012;28;20231;-72
2023/07/27 11:59:16;;;;;;;1.40;1.30;;;46.70;42.90;;;;;;5060079;28;20349;-72
2023/07/27 12:02:05;;;;;;;1.83;1.45;;;47.20;41.50;;;;;;5061207;28;20234;-70
2023/07/27 12:04:55;;;;;;;2.20;1.55;;;39.20;46.30;;;;;;5051933;28;20223;-72
2023/07/27 12:07:44;;;;;;;2.40;1.83;;;36.90;52.20;;;;;;5067732;28;20227;-71
2023/07/27 12:10:36;;;;;;;3.83;1.20;;;39.80;43.90;;;;;;5060997;28;20223;-72
2023/07/27 12:13:47;;;;;;;1.55;1.33;;;42.20;48.20;;;;;;5075190;28;20234;-70
2023/07/27 12:16:42;;;;;;;5.05;1.90;;;40.60;43.50;;;;;;5066015;28;20226;-70
2023/07/27 12:19:34;;;;;;;5.35;1.35;;;39.30;43.40;;;;;;5074316;28;20294;-71
2023/07/27 12:22:24;;;;;;;5.65;1.98;;;34.60;49.70;;;;;;5060165;28;20216;-70
2023/07/27 12:25:16;;;;;;;3.65;1.30;;;33.00;52.80;;;;;;5060185;28;20228;-72
2023/07/27 12:28:08;;;;;;;2.40;1.40;;;31.10;56.10;;;;;;5062026;28;20680;-70
2023/07/27 12:31:00;;;;;;;2.65;1.52;;;36.10;54.30;;;;;;5061138;28;20773;-71
2023/07/27 12:33:52;;;;;;;2.08;1.40;;;39.00;48.40;;;;;;5065357;28;20224;-74
2023/07/27 12:36:41;;;;;;;5.22;1.60;;;33.30;51.90;;;;;;5071404;28;20220;-73
2023/07/27 12:39:31;;;;;;;4.45;1.40;;;32.80;53.40;;;;;;5076921;28;20359;-73
2023/07/27 12:42:20;;;;;;;3.13;1.30;;;30.50;56.70;;;;;;5063745;28;20227;-73
2023/07/27 12:45:12;;;;;;;7.07;1.95;;;29.50;60.80;;;;;;5081451;28;20283;-73
2023/07/27 12:48:01;;;;;;;4.28;1.52;;;29.80;64.10;;;;;;5082789;28;20926;-72
2023/07/27 12:50:50;;;;;;;4.00;1.60;;;28.80;65.20;;;;;;5079712;28;20222;-72
2023/07/27 12:53:39;;;;;;;2.00;1.52;;;28.50;63.90;;;;;;5078284;28;20279;-73
2023/07/27 12:56:32;;;;;;;4.10;1.48;;;28.10;68.30;;;;;;5081511;28;20300;-73
2023/07/27 12:59:22;;;;;;;5.18;1.60;;;27.60;66.40;;;;;;5051299;28;20231;-72
2023/07/27 13:02:11;;;;;;;4.65;1.85;;;27.40;68.80;;;;;;5066242;28;20227;-70
2023/07/27 13:04:59;;;;;;;1.85;1.40;;;27.30;64.70;;;;;;5073169;28;20674;-70
2023/07/27 13:07:48;;;;;;;1.85;1.40;;;27.10;68.30;;;;;;5075972;28;20210;-70
2023/07/27 13:10:37;;;;;;;4.05;1.50;;;27.00;71.00;;;;;;5068504;28;20768;-70
2023/07/27 13:13:27;;;;;;;3.75;1.60;;;26.70;69.50;;;;;;5081161;28;20323;-70
2023/07/27 13:16:16;;;;;;;1.67;1.27;;;26.40;69.00;;;;;;5069227;28;20219;-71
2023/07/27 13:19:05;;;;;;;1.73;1.55;;;26.40;73.50;;;;;;5064253;28;20231;-70
2023/07/27 13:21:55;;;;;;;2.40;1.60;;;26.00;70.80;;;;;;5065551;28;20216;-71
2023/07/27 13:24:44;;;;;;;2.80;1.50;;;25.80;73.40;;;;;;5062602;28;20325;-70
2023/07/27 13:27:33;;;;;;;1.80;1.45;;;25.80;68.10;;;;;;5079477;28;20227;-71
2023/07/27 13:30:24;;;;;;;3.22;1.70;;;25.90;68.00;;;;;;5075709;28;20702;-70
2023/07/27 13:33:13;;;;;;;2.17;1.80;;;25.80;72.00;;;;;;5064603;28;20282;-70
2023/07/27 13:36:02;;;;;;;2.72;2.08;;;25.90;74.50;;;;;;5072489;28;20429;-70
2023/07/27 13:38:51;;;;;;;2.17;1.58;;;25.80;74.00;;;;;;5063174;28;20315;-70
2023/07/27 13:41:41;;;;;;;1.63;1.30;;;25.80;70.90;;;;;;5062787;28;20614;-70
2023/07/27 13:44:30;;;;;;;3.35;1.42;;;25.70;69.90;;;;;;5061099;28;20261;-70
2023/07/27 13:47:20;;;;;;;2.75;1.40;;;25.40;71.50;;;;;;5074462;28;20227;-70
2023/07/27 13:50:09;;;;;;;5.63;1.80;;;25.30;74.70;;;;;;5057414;28;20224;-70
2023/07/27 13:52:58;;;;;;;3.90;1.65;;;25.30;72.10;;;;;;5080676;28;20702;-70
2023/07/27 13:55:49;;;;;;;2.88;1.67;;;25.30;71.00;;;;;;5054923;28;20226;-70
2023/07/27 13:58:40;;;;;;;3.03;1.50;;;25.20;72.30;;;;;;5057988;28;20579;-71
2023/07/27 14:01:29;;;;;;;2.35;1.30;;;25.20;74.30;;;;;;5072133;28;20247;-72
2023/07/27 14:04:21;;;;;;;4.88;1.75;;;25.00;72.80;;;;;;5068395;28;20229;-74
2023/07/27 14:07:10;;;;;;;1.55;1.23;;;25.00;73.10;;;;;;5070975;28;20238;-74
2023/07/27 14:09:59;;;;;;;2.50;1.60;;;24.80;75.60;;;;;;5067168;28;20712;-73
2023/07/27 14:12:47;;;;;;;2.80;1.63;;;24.70;73.60;;;;;;5063329;28;20288;-73
2023/07/27 14:15:36;;;;;;;1.60;1.50;;;24.80;74.00;;;;;;5067094;28;20223;-73
2023/07/27 14:18:26;;;;;;;6.03;1.80;;;24.70;72.30;;;;;;5055568;28;20312;-74
2023/07/27 14:21:16;;;;;;;3.00;1.60;;;24.70;72.50;;;;;;5071247;28;20310;-71
2023/07/27 14:24:06;;;;;;;3.22;1.80;;;24.70;73.70;;;;;;5059383;28;20228;-71
2023/07/27 14:26:55;;;;;;;2.33;1.50;;;24.70;73.60;;;;;;5067727;28;20789;-71
2023/07/27 14:29:44;;;;;;;3.58;1.52;;;24.60;73.90;;;;;;5056837;28;20215;-72
2023/07/27 14:32:32;;;;;;;2.22;1.50;;;24.60;75.50;;;;;;5075489;28;20216;-70
2023/07/27 14:35:21;;;;;;;4.80;1.92;;;24.50;73.30;;;;;;5077449;28;20242;-70
2023/07/27 14:38:15;;;;;;;3.05;1.90;;;24.60;74.40;;;;;;5059321;28;20223;-70
2023/07/27 14:41:04;;;;;;;5.10;1.88;;;24.60;75.30;;;;;;5063180;28;20223;-71
2023/07/27 14:43:53;;;;;;;2.75;1.70;;;24.60;78.20;;;;;;5045735;28;20757;-71
2023/07/27 14:46:42;;;;;;;2.05;1.60;;;24.50;74.50;;;;;;5051381;28;20227;-74